Etusivu
METAR-TAF:

METAR-TAF

Lentoasemat :

Örnsköldsvikin lentoasema

Örnsköldsvik, Ruotsi

Leveyspiiri: 63-24N, Pituuspiiri: 018-58E, korkeus merenpinnasta: 103 m

Tämänhetkinen sää

Tämä raportti tehtiin 22 minuuttia sitten, kello 03.50 UTC
Tuuli 5 kn lännestä/luoteesta, vaihdellen lännen ja luoteen välillä
Lämpötila -9°C
Kosteus 85%
Ilmanpaine 997 hPa
Näkyvyys 10 km tai enemmän

METAR: ESNO 250350Z AUTO 29005KT 260V320 9999 NCD M09/M11 Q0997

Aika: 05:12 (04:12 UTC)

Sääennuste

Tämä raportti tehtiin 42 minuuttia sitten, kello 03.30 UTC
Ennuste voimassa 25. päivästä klo 04 UTC - 25. päivään klo 12 UTC
Tuuli 6 kn lännestä
Näkyvyys 10 km tai enemmän
ei pilviä alle 1500 m:ssä eikä cumulonimbus-pilviä

TAF: ESNO 250330Z 2504/2512 26006KT CAVOK

Säähavainnot ja -ennusteet yli 4000 lentoasemalta (METAR- ja TAF-raportit).

Käytössä olevat sääasemat on merkitty karttaan keltaisilla ja punaisilla pisteillä.

Aseta hiiri pisteen päälle nähdäksesi sääaseman nimen.

Klikkaa sitten nähdäksesi säähavainnot ja -ennusteet.

Kartan vaihtaminen: klikkaa mustalla rastilla varustettuja vihreitä pisteitä, niin voit zoomata sisään; viivalla varustettua vihreää pistettä, niin voit zoomata ulos tai vihreitä nuolia, niin pääset viereisille kartoille.


METAR-TAF: